createdAt,value
2017-12-02T00:02:13.392Z,28.60
2017-12-02T00:04:42.993Z,21.35
2017-12-02T00:07:12.823Z,23.15
2017-12-02T00:09:42.726Z,19.92
2017-12-02T00:12:12.607Z,21.73
2017-12-02T00:14:42.691Z,24.42
2017-12-02T00:17:12.484Z,22.95
2017-12-02T00:19:42.305Z,23.08
2017-12-02T00:22:11.677Z,21.02
2017-12-02T00:24:41.163Z,21.62
2017-12-02T00:27:11.044Z,23.50
2017-12-02T00:29:40.934Z,15.30
2017-12-02T00:32:10.807Z,18.98
2017-12-02T00:34:40.147Z,21.77
2017-12-02T00:37:10.081Z,21.92
2017-12-02T00:39:39.980Z,17.83
2017-12-02T00:42:09.338Z,17.70
2017-12-02T00:44:39.057Z,17.50
2017-12-02T00:47:09.119Z,17.60
2017-12-02T00:49:39.022Z,21.77
2017-12-02T00:52:08.917Z,19.75
2017-12-02T00:54:38.773Z,22.77
2017-12-02T00:57:09.103Z,19.70
2017-12-02T00:59:38.783Z,18.25
2017-12-02T01:02:08.830Z,19.92
2017-12-02T01:04:38.454Z,19.60
2017-12-02T01:07:08.170Z,22.52
2017-12-02T01:09:38.026Z,19.40
2017-12-02T01:12:07.702Z,19.70
2017-12-02T01:14:37.413Z,16.15
2017-12-02T01:17:07.190Z,21.30
2017-12-02T01:19:37.041Z,20.23
2017-12-02T01:22:06.873Z,22.33
2017-12-02T01:24:36.504Z,22.55
2017-12-02T01:27:06.370Z,16.75
2017-12-02T01:29:36.224Z,18.42
2017-12-02T01:32:06.084Z,16.87
2017-12-02T01:34:36.867Z,17.35
2017-12-02T01:37:06.724Z,24.02
2017-12-02T01:39:36.784Z,18.15
2017-12-02T01:42:06.720Z,16.98
2017-12-02T01:44:36.669Z,15.02
2017-12-02T01:47:06.575Z,17.00
2017-12-02T01:49:36.429Z,15.65
2017-12-02T01:52:06.466Z,18.10
2017-12-02T01:54:36.543Z,14.93
2017-12-02T01:57:06.454Z,16.23
2017-12-02T01:59:36.310Z,14.25
2017-12-02T02:02:06.336Z,15.30
2017-12-02T02:04:36.252Z,13.98
2017-12-02T02:07:06.181Z,15.48
2017-12-02T02:09:36.003Z,17.60
2017-12-02T02:12:06.101Z,15.57
2017-12-02T02:14:36.091Z,17.20
2017-12-02T02:17:05.974Z,14.35
2017-12-02T02:19:35.938Z,13.93
2017-12-02T02:22:05.743Z,11.70
2017-12-02T02:24:35.517Z,15.18
2017-12-02T02:27:05.374Z,15.95
2017-12-02T02:29:35.247Z,12.43
2017-12-02T02:32:05.124Z,12.52
2017-12-02T02:34:34.998Z,11.77
2017-12-02T02:37:04.809Z,11.20
2017-12-02T02:39:34.606Z,12.13
2017-12-02T02:57:31.156Z,16.77
2017-12-02T03:12:18.408Z,15.70
2017-12-02T04:29:38.599Z,29.83
2017-12-02T04:32:21.537Z,25.33
2017-12-02T04:43:07.092Z,27.62
2017-12-02T04:59:26.098Z,23.60
2017-12-02T05:04:43.538Z,28.80
2017-12-02T05:12:36.632Z,29.63
2017-12-02T05:17:55.610Z,29.00
2017-12-02T05:37:12.054Z,30.08
2017-12-02T05:39:43.320Z,25.88
2017-12-02T05:52:31.452Z,27.00
2017-12-02T05:57:35.727Z,27.27
2017-12-02T07:16:05.426Z,13.77
2017-12-02T07:18:34.646Z,16.37
2017-12-02T07:21:03.868Z,15.00
2017-12-02T07:23:33.052Z,13.73
2017-12-02T07:26:16.261Z,15.98
2017-12-02T07:28:50.264Z,21.70
2017-12-02T07:31:37.567Z,14.95
2017-12-02T07:34:08.122Z,12.65
2017-12-02T07:36:38.665Z,17.00
2017-12-02T07:39:09.796Z,16.20
2017-12-02T07:41:39.323Z,18.15
2017-12-02T07:44:09.429Z,16.87
2017-12-02T07:46:38.954Z,17.20
2017-12-02T07:49:08.881Z,11.88
2017-12-02T07:51:38.694Z,13.23
2017-12-02T07:54:08.486Z,14.73
2017-12-02T07:56:38.260Z,14.30
2017-12-02T07:59:08.364Z,16.25
2017-12-02T08:01:37.789Z,16.50
2017-12-02T08:04:07.046Z,22.02
2017-12-02T08:06:36.500Z,20.35
2017-12-02T08:09:14.104Z,17.48
2017-12-02T08:11:46.385Z,26.65
2017-12-02T08:14:16.622Z,16.35
2017-12-02T08:16:46.475Z,14.93
2017-12-02T08:19:16.565Z,17.08
2017-12-02T08:21:47.995Z,16.65
2017-12-02T08:24:17.474Z,15.95
2017-12-02T08:26:47.121Z,14.48
2017-12-02T08:29:21.770Z,15.80
2017-12-02T08:31:52.601Z,17.60
2017-12-02T08:34:22.154Z,15.38
2017-12-02T08:36:51.985Z,14.75
2017-12-02T08:39:21.588Z,13.13
2017-12-02T08:41:51.297Z,15.50
2017-12-02T08:44:29.411Z,17.67
2017-12-02T08:47:04.344Z,14.40
2017-12-02T08:49:34.862Z,14.35
2017-12-02T08:52:04.385Z,17.85
2017-12-02T08:54:34.203Z,14.55
2017-12-02T08:57:04.164Z,14.82
2017-12-02T08:59:33.787Z,13.48
2017-12-02T09:02:03.357Z,13.62
2017-12-02T09:04:33.028Z,16.10
2017-12-02T09:07:02.855Z,14.52
2017-12-02T09:09:32.370Z,13.13
2017-12-02T09:12:01.795Z,14.38
2017-12-02T09:14:31.126Z,14.40
2017-12-02T09:17:00.883Z,14.85
2017-12-02T09:19:30.376Z,15.10
2017-12-02T09:22:00.051Z,15.52
2017-12-02T09:24:29.669Z,21.02
2017-12-02T09:26:59.151Z,16.40
2017-12-02T09:29:28.690Z,16.15
2017-12-02T09:31:58.309Z,19.42
2017-12-02T09:34:28.231Z,17.83
2017-12-02T09:36:57.710Z,19.15
2017-12-02T09:39:27.448Z,18.02
2017-12-02T09:41:56.900Z,17.98
2017-12-02T09:44:26.802Z,17.58
2017-12-02T09:46:56.393Z,14.10
2017-12-02T09:49:25.968Z,18.52
2017-12-02T09:51:55.933Z,16.73
2017-12-02T09:54:25.469Z,23.00
2017-12-02T09:56:55.558Z,18.30
2017-12-02T09:59:36.477Z,19.77
2017-12-02T10:02:08.574Z,18.80
2017-12-02T10:04:38.076Z,19.55
2017-12-02T10:07:07.685Z,16.25
2017-12-02T10:09:37.476Z,17.12
2017-12-02T10:12:06.922Z,17.33
2017-12-02T10:14:36.689Z,15.00
2017-12-02T10:17:06.642Z,14.10
2017-12-02T10:19:36.263Z,15.18
2017-12-02T10:22:05.982Z,19.83
2017-12-02T10:24:35.517Z,17.37
2017-12-02T10:27:04.927Z,17.77
2017-12-02T10:29:34.789Z,13.93
2017-12-02T10:32:04.307Z,15.35
2017-12-02T10:34:33.306Z,18.50
2017-12-02T10:37:03.013Z,17.33
2017-12-02T10:39:32.608Z,16.13
2017-12-02T10:42:01.927Z,12.90
2017-12-02T10:44:32.101Z,14.03
2017-12-02T10:47:01.889Z,14.63
2017-12-02T10:49:31.322Z,14.95
2017-12-02T10:52:01.104Z,15.23
2017-12-02T10:54:30.536Z,19.20
2017-12-02T10:56:59.769Z,16.33
2017-12-02T10:59:29.508Z,18.67
2017-12-02T11:01:59.232Z,15.05
2017-12-02T11:04:29.286Z,18.20
2017-12-02T11:06:59.798Z,16.62
2017-12-02T11:09:29.607Z,19.62
2017-12-02T11:11:59.567Z,14.32
2017-12-02T11:14:30.127Z,14.95
2017-12-02T11:16:59.909Z,14.30
2017-12-02T11:19:29.672Z,15.60
2017-12-02T11:21:59.502Z,13.75
2017-12-02T11:24:29.303Z,16.20
2017-12-02T11:26:59.115Z,16.67
2017-12-02T11:29:31.046Z,15.32
2017-12-02T11:32:01.408Z,13.35
2017-12-02T11:34:31.159Z,16.35
2017-12-02T11:37:00.575Z,18.87
2017-12-02T11:39:32.136Z,13.00
2017-12-02T11:42:04.749Z,14.80
2017-12-02T11:44:35.057Z,13.35
2017-12-02T11:47:05.046Z,13.95
2017-12-02T11:49:35.664Z,14.15
2017-12-02T11:52:05.476Z,20.42
2017-12-02T11:54:36.001Z,12.70
2017-12-02T12:11:41.870Z,12.70
2017-12-02T12:16:48.246Z,14.15
2017-12-02T12:24:27.133Z,12.70
2017-12-02T12:26:57.533Z,12.73
2017-12-02T12:29:27.984Z,12.00
2017-12-02T12:31:58.036Z,13.35
2017-12-02T12:34:27.795Z,8.00
2017-12-02T12:36:57.540Z,7.75
2017-12-02T12:39:27.472Z,8.68
2017-12-02T12:41:57.320Z,10.63
2017-12-02T12:44:27.047Z,10.55
2017-12-02T12:46:57.659Z,9.52
2017-12-02T12:49:27.331Z,10.07
2017-12-02T12:51:56.816Z,9.73
2017-12-02T12:54:26.681Z,12.43
2017-12-02T12:56:56.521Z,9.93
2017-12-02T12:59:26.155Z,9.80
2017-12-02T13:01:55.815Z,8.48
2017-12-02T13:04:25.924Z,10.63
2017-12-02T13:06:55.826Z,9.55
2017-12-02T13:09:25.765Z,10.02
2017-12-02T13:11:55.734Z,11.77
2017-12-02T13:14:25.848Z,11.48
2017-12-02T13:16:55.816Z,14.32
2017-12-02T13:19:25.655Z,13.62
2017-12-02T13:21:55.801Z,7.90
2017-12-02T13:24:25.612Z,18.08
2017-12-02T13:26:55.460Z,9.95
2017-12-02T13:29:25.272Z,9.27
2017-12-02T13:31:55.065Z,8.45
2017-12-02T13:34:24.850Z,9.40
2017-12-02T13:36:54.556Z,12.37
2017-12-02T13:39:24.457Z,8.57
2017-12-02T13:41:54.175Z,9.63
2017-12-02T13:44:23.900Z,7.75
2017-12-02T13:46:53.703Z,11.48
2017-12-02T13:49:23.537Z,10.13
2017-12-02T13:51:53.111Z,12.20
2017-12-02T13:54:22.835Z,10.48
2017-12-02T13:56:52.564Z,9.55
2017-12-02T13:59:22.329Z,8.85
2017-12-02T14:01:52.107Z,13.10
2017-12-02T14:04:23.731Z,10.05
2017-12-02T14:06:53.579Z,10.73
2017-12-02T14:09:23.385Z,9.27
2017-12-02T14:11:53.208Z,12.10
2017-12-02T14:14:23.708Z,11.40
2017-12-02T14:16:53.470Z,12.82
2017-12-02T14:19:23.747Z,11.48
2017-12-02T14:21:53.570Z,14.85
2017-12-02T14:24:23.492Z,15.35
2017-12-02T14:26:53.389Z,14.75
2017-12-02T14:29:23.047Z,12.27
2017-12-02T14:31:52.777Z,12.05
2017-12-02T14:34:23.558Z,14.32
2017-12-02T14:36:53.398Z,15.65
2017-12-02T14:39:23.466Z,9.57
2017-12-02T14:44:31.971Z,14.65
2017-12-02T14:47:01.732Z,15.55
2017-12-02T14:49:36.948Z,19.08
2017-12-02T14:52:10.285Z,15.98
2017-12-02T14:54:46.113Z,12.70
2017-12-02T14:57:16.756Z,14.27
2017-12-02T14:59:47.501Z,11.45
2017-12-02T15:02:21.052Z,14.52
2017-12-02T15:04:50.948Z,16.58
2017-12-02T15:07:20.721Z,11.82
2017-12-02T15:09:50.693Z,17.12
2017-12-02T15:12:20.605Z,13.77
2017-12-02T15:14:50.306Z,11.43
2017-12-02T15:26:44.486Z,15.00
2017-12-02T15:29:14.822Z,11.85
2017-12-02T15:31:44.646Z,14.80
2017-12-02T15:34:14.562Z,13.90
2017-12-02T15:36:53.746Z,12.02
2017-12-02T15:39:25.074Z,19.05
2017-12-02T15:41:54.706Z,14.80
2017-12-02T15:44:24.797Z,12.70
2017-12-02T15:46:54.716Z,11.98
2017-12-02T15:49:29.354Z,13.57
2017-12-02T15:59:15.418Z,15.50
2017-12-02T16:01:45.718Z,15.70
2017-12-02T16:04:19.693Z,13.18
2017-12-02T16:06:52.206Z,16.23
2017-12-02T16:09:23.993Z,21.12
2017-12-02T16:11:57.162Z,17.62
2017-12-02T16:14:32.040Z,15.50
2017-12-02T16:17:01.991Z,12.43
2017-12-02T16:19:35.023Z,10.88
2017-12-02T16:24:40.271Z,14.60
2017-12-02T16:27:10.644Z,13.80
2017-12-02T16:29:40.599Z,17.95
2017-12-02T16:32:10.664Z,17.08
2017-12-02T16:34:43.366Z,20.75
2017-12-02T16:39:50.711Z,13.95
2017-12-02T16:42:22.227Z,17.52
2017-12-02T16:44:54.256Z,15.73
2017-12-02T16:47:23.759Z,14.13
2017-12-02T16:49:53.895Z,15.02
2017-12-02T16:52:23.876Z,12.70
2017-12-02T16:54:53.809Z,13.23
2017-12-02T16:59:57.902Z,14.65
2017-12-02T17:05:02.117Z,13.07
2017-12-02T17:07:32.696Z,14.52
2017-12-02T17:10:03.371Z,17.23
2017-12-02T17:12:33.494Z,17.83
2017-12-02T17:15:05.076Z,14.77
2017-12-02T17:17:35.003Z,13.52
2017-12-02T17:20:08.098Z,17.55
2017-12-02T17:22:38.258Z,13.20
2017-12-02T17:25:09.157Z,10.98
2017-12-02T17:27:39.141Z,15.90
2017-12-02T17:30:09.202Z,11.55
2017-12-02T17:32:39.464Z,16.02
2017-12-02T17:35:09.370Z,13.10
2017-12-02T17:37:39.534Z,13.23
2017-12-02T17:40:10.690Z,14.45
2017-12-02T17:42:40.237Z,12.73
2017-12-02T17:45:10.116Z,14.95
2017-12-02T17:47:40.771Z,12.65
2017-12-02T17:50:18.675Z,17.15
2017-12-02T17:52:49.334Z,17.75
2017-12-02T17:55:21.838Z,13.77
2017-12-02T17:57:51.805Z,12.10
2017-12-02T18:00:22.664Z,15.00
2017-12-02T18:02:53.008Z,15.00
2017-12-02T18:05:23.811Z,13.75
2017-12-02T18:07:54.477Z,15.85
2017-12-02T18:10:24.696Z,17.98
2017-12-02T18:12:55.033Z,15.18
2017-12-02T18:15:25.153Z,14.05
2017-12-02T18:17:55.133Z,15.50
2017-12-02T18:20:25.060Z,12.95
2017-12-02T18:22:56.458Z,16.10
2017-12-02T18:25:30.811Z,11.52
2017-12-02T18:28:00.706Z,11.82
2017-12-02T18:30:30.644Z,14.40
2017-12-02T18:33:00.640Z,15.30
2017-12-02T18:35:30.694Z,18.45
2017-12-02T18:38:00.622Z,10.93
2017-12-02T18:40:30.907Z,12.98
2017-12-02T18:43:00.572Z,17.05
2017-12-02T18:45:30.761Z,12.93
2017-12-02T18:48:00.965Z,12.37
2017-12-02T18:50:31.314Z,13.13
2017-12-02T18:53:02.112Z,12.23
2017-12-02T18:55:34.107Z,13.20
2017-12-02T18:58:04.092Z,14.10
2017-12-02T19:00:33.879Z,14.73
2017-12-02T19:03:03.770Z,12.60
2017-12-02T19:05:33.812Z,14.05
2017-12-02T19:08:04.050Z,13.45
2017-12-02T19:10:37.725Z,14.05
2017-12-02T19:13:08.026Z,17.95
2017-12-02T19:15:38.704Z,14.80
2017-12-02T19:18:16.300Z,13.60
2017-12-02T19:20:50.920Z,13.00
2017-12-02T19:23:20.755Z,12.68
2017-12-02T19:25:55.355Z,13.18
2017-12-02T19:28:26.334Z,20.85
2017-12-02T19:30:56.325Z,12.48
2017-12-02T19:33:26.842Z,16.67
2017-12-02T19:35:57.516Z,14.93
2017-12-02T19:38:28.772Z,8.15
2017-12-02T19:41:01.080Z,13.05
2017-12-02T19:43:31.779Z,12.73
2017-12-02T19:46:02.293Z,13.32
2017-12-02T19:48:33.087Z,12.68
2017-12-02T19:51:03.831Z,11.57
2017-12-02T19:53:33.847Z,11.05
2017-12-02T19:56:04.747Z,11.32
2017-12-02T19:58:35.113Z,11.02
2017-12-02T20:01:05.352Z,13.00
2017-12-02T20:03:36.372Z,12.50
2017-12-02T20:06:06.702Z,13.82
2017-12-02T20:08:36.565Z,12.75
2017-12-02T20:11:09.903Z,15.27
2017-12-02T20:13:39.345Z,13.80
2017-12-02T20:16:10.250Z,13.90
2017-12-02T20:18:40.946Z,13.75
2017-12-02T20:21:11.000Z,11.70
2017-12-02T20:23:42.315Z,15.73
2017-12-02T20:26:13.301Z,13.52
2017-12-02T20:28:44.114Z,11.85
2017-12-02T20:31:13.996Z,11.45
2017-12-02T20:33:44.233Z,11.70
2017-12-02T20:36:13.979Z,12.43
2017-12-02T20:38:45.050Z,13.95
2017-12-02T20:41:16.840Z,12.48
2017-12-02T20:43:46.654Z,14.10
2017-12-02T20:48:51.464Z,12.75
2017-12-02T20:51:21.797Z,10.88
2017-12-02T20:53:52.583Z,12.35
2017-12-02T20:56:23.099Z,14.13
2017-12-02T20:58:53.032Z,13.55
2017-12-02T21:01:23.072Z,11.60
2017-12-02T21:03:52.628Z,14.45
2017-12-02T21:06:24.743Z,13.32
2017-12-02T21:08:54.756Z,12.98
2017-12-02T21:11:27.236Z,13.32
2017-12-02T21:13:57.560Z,17.62
2017-12-02T21:16:27.355Z,14.25
2017-12-02T21:18:57.317Z,15.88
2017-12-02T21:21:29.639Z,14.93
2017-12-02T21:24:01.400Z,15.88
2017-12-02T21:26:33.177Z,14.48
2017-12-02T21:29:06.483Z,15.43
2017-12-02T21:31:40.503Z,13.35
2017-12-02T21:34:10.552Z,13.43
2017-12-02T21:36:42.408Z,15.50
2017-12-02T21:39:13.792Z,15.90
2017-12-02T21:41:44.556Z,12.32
2017-12-02T21:44:16.083Z,12.50
2017-12-02T21:46:54.575Z,17.02
2017-12-02T21:49:24.610Z,14.18
2017-12-02T21:51:54.533Z,15.43
2017-12-02T21:54:24.145Z,22.67
2017-12-02T21:56:54.085Z,14.60
2017-12-02T21:59:24.434Z,14.70
2017-12-02T22:01:54.553Z,13.98
2017-12-02T22:04:34.145Z,17.33
2017-12-02T22:07:03.874Z,18.42
2017-12-02T22:09:33.832Z,18.62
2017-12-02T22:12:05.652Z,16.60
2017-12-02T22:14:35.930Z,14.75
2017-12-02T22:17:06.151Z,15.40
2017-12-02T22:19:36.119Z,15.38
2017-12-02T22:22:06.014Z,16.87
2017-12-02T22:24:35.995Z,17.45
2017-12-02T22:27:05.946Z,21.50
2017-12-02T22:29:35.875Z,19.52
2017-12-02T22:32:06.632Z,26.48
2017-12-02T22:34:37.144Z,18.00
2017-12-02T22:37:09.622Z,20.08
2017-12-02T22:39:39.811Z,20.25
2017-12-02T22:42:11.506Z,17.95
2017-12-02T22:44:41.484Z,32.08
2017-12-02T22:47:11.929Z,36.90
2017-12-02T22:49:47.432Z,22.42
2017-12-02T22:52:17.752Z,23.05
2017-12-02T22:54:50.732Z,19.35
2017-12-02T22:57:20.677Z,20.50
2017-12-02T23:08:57.126Z,24.27
2017-12-02T23:11:26.624Z,22.70
2017-12-02T23:13:56.745Z,23.77
2017-12-02T23:16:26.755Z,21.27
2017-12-02T23:18:56.816Z,22.70
2017-12-02T23:21:28.396Z,18.50
2017-12-02T23:24:00.016Z,21.30
2017-12-02T23:26:31.573Z,18.95
2017-12-02T23:29:02.922Z,20.95
2017-12-02T23:31:34.234Z,18.35
2017-12-02T23:34:06.041Z,18.58
2017-12-02T23:36:38.064Z,19.85
2017-12-02T23:39:10.069Z,19.98
2017-12-02T23:41:41.723Z,21.15
2017-12-02T23:44:12.781Z,21.48
2017-12-02T23:46:44.414Z,23.30
2017-12-02T23:49:16.070Z,21.37
2017-12-02T23:51:47.305Z,21.75
2017-12-02T23:54:17.882Z,20.55
2017-12-02T23:56:49.509Z,21.92
2017-12-02T23:59:20.544Z,22.35
